Map

Track Data

SID SEASON NUMBER BASIN SUBBASIN NAME ISO_TIME NATURE LAT LON WMO_WIND WMO_PRES WMO_AGENCY TRACK_TYPE DIST2LAND LANDFALL IFLAG USA_AGENCY USA_ATCF_ID USA_LAT USA_LON USA_RECORD USA_STATUS USA_WIND USA_PRES USA_SSHS USA_R34_NE USA_R34_SE USA_R34_SW USA_R34_NW USA_R50_NE USA_R50_SE USA_R50_SW USA_R50_NW USA_R64_NE USA_R64_SE USA_R64_SW USA_R64_NW USA_POCI USA_ROCI USA_RMW USA_EYE TOKYO_LAT TOKYO_LON TOKYO_GRADE TOKYO_WIND TOKYO_PRES TOKYO_R50_DIR TOKYO_R50_LONG TOKYO_R50_SHORT TOKYO_R30_DIR TOKYO_R30_LONG TOKYO_R30_SHORT TOKYO_LAND CMA_LAT CMA_LON CMA_CAT CMA_WIND CMA_PRES HKO_LAT HKO_LON HKO_CAT HKO_WIND HKO_PRES NEWDELHI_LAT NEWDELHI_LON NEWDELHI_GRADE NEWDELHI_WIND NEWDELHI_PRES NEWDELHI_CI NEWDELHI_DP NEWDELHI_POCI REUNION_LAT REUNION_LON REUNION_TYPE REUNION_WIND REUNION_PRES REUNION_TNUM REUNION_CI REUNION_RMW REUNION_R34_NE REUNION_R34_SE REUNION_R34_SW REUNION_R34_NW REUNION_R50_NE REUNION_R50_SE REUNION_R50_SW REUNION_R50_NW REUNION_R64_NE REUNION_R64_SE REUNION_R64_SW REUNION_R64_NW BOM_LAT BOM_LON BOM_TYPE BOM_WIND BOM_PRES BOM_TNUM BOM_CI BOM_RMW BOM_R34_NE BOM_R34_SE BOM_R34_SW BOM_R34_NW BOM_R50_NE BOM_R50_SE BOM_R50_SW BOM_R50_NW BOM_R64_NE BOM_R64_SE BOM_R64_SW BOM_R64_NW BOM_ROCI BOM_POCI BOM_EYE BOM_POS_METHOD BOM_PRES_METHOD NADI_LAT NADI_LON NADI_CAT NADI_WIND NADI_PRES WELLINGTON_LAT WELLINGTON_LON WELLINGTON_WIND WELLINGTON_PRES DS824_LAT DS824_LON DS824_STAGE DS824_WIND DS824_PRES TD9636_LAT TD9636_LON TD9636_STAGE TD9636_WIND TD9636_PRES TD9635_LAT TD9635_LON TD9635_WIND TD9635_PRES TD9635_ROCI NEUMANN_LAT NEUMANN_LON NEUMANN_CLASS NEUMANN_WIND NEUMANN_PRES MLC_LAT MLC_LON MLC_CLASS MLC_WIND MLC_PRES USA_GUST BOM_GUST BOM_GUST_PER REUNION_GUST REUNION_GUST_PER USA_SEAHGT USA_SEARAD_NE USA_SEARAD_SE USA_SEARAD_SW USA_SEARAD_NW STORM_SPEED STORM_DIR
1921248N21265 1921 43 NA GM NOT_NAMED 1921-09-04 12:00:00 TS 21.0000 -95.0000 30 hurdat_atl main 190 182 O_____________ hurdat_atl AL021921 21.0000 -95.0000 TD 30 -1 2 290
1921248N21265 1921 43 NA GM NOT_NAMED 1921-09-04 15:00:00 TS 21.0375 -95.1100 main 182 182 P_____________ AL021921 21.0375 -95.1100 TD 30 -1 2 299
1921248N21265 1921 43 NA GM NOT_NAMED 1921-09-04 18:00:00 TS 21.1000 -95.2000 30 hurdat_atl main 182 182 O_____________ hurdat_atl AL021921 21.1000 -95.2000 TD 30 -1 2 320
1921248N21265 1921 43 NA GM NOT_NAMED 1921-09-04 21:00:00 TS 21.2000 -95.2575 main 182 182 P_____________ AL021921 21.2000 -95.2575 TD 30 -1 2 333
1921248N21265 1921 43 NA GM NOT_NAMED 1921-09-05 00:00:00 TS 21.3000 -95.3000 30 hurdat_atl main 190 190 O_____________ hurdat_atl AL021921 21.3000 -95.3000 TD 30 -1 2 330
1921248N21265 1921 43 NA GM NOT_NAMED 1921-09-05 03:00:00 TS 21.3575 -95.3500 main 190 190 P_____________ AL021921 21.3575 -95.3500 TD 30 -1 1 317
1921248N21265 1921 43 NA GM NOT_NAMED 1921-09-05 06:00:00 TS 21.4000 -95.4000 30 hurdat_atl main 190 190 O_____________ hurdat_atl AL021921 21.4000 -95.4000 TD 30 -1 1 313
1921248N21265 1921 43 NA GM NOT_NAMED 1921-09-05 09:00:00 TS 21.4425 -95.4425 main 190 186 P_____________ AL021921 21.4425 -95.4425 TD 30 -1 1 317
1921248N21265 1921 43 NA GM NOT_NAMED 1921-09-05 12:00:00 TS 21.5000 -95.5000 30 hurdat_atl main 186 175 O_____________ hurdat_atl AL021921 21.5000 -95.5000 TD 30 -1 2 319
1921248N21265 1921 43 NA GM NOT_NAMED 1921-09-05 15:00:00 TS 21.6000 -95.5925 main 175 165 P_____________ AL021921 21.6000 -95.5925 TD 30 -1 3 317
1921248N21265 1921 43 NA GM NOT_NAMED 1921-09-05 18:00:00 TS 21.7000 -95.7000 30 hurdat_atl main 165 155 O_____________ hurdat_atl AL021921 21.7000 -95.7000 TD 30 -1 2 309
1921248N21265 1921 43 NA GM NOT_NAMED 1921-09-05 21:00:00 TS 21.7575 -95.8000 main 156 146 P_____________ AL021921 21.7575 -95.8000 TD 32 -1 2 299
1921248N21265 1921 43 NA GM NOT_NAMED 1921-09-06 00:00:00 TS 21.8000 -95.9000 35 hurdat_atl main 146 136 O_____________ hurdat_atl AL021921 21.8000 -95.9000 TS 35 0 2 298
1921248N21265 1921 43 NA GM NOT_NAMED 1921-09-06 03:00:00 TS 21.8500 -95.9850 main 136 128 P_____________ AL021921 21.8500 -95.9850 TS 37 0 2 299
1921248N21265 1921 43 NA GM NOT_NAMED 1921-09-06 06:00:00 TS 21.9000 -96.1000 40 hurdat_atl main 128 108 O_____________ hurdat_atl AL021921 21.9000 -96.1000 TS 40 0 3 289
1921248N21265 1921 43 NA GM NOT_NAMED 1921-09-06 09:00:00 TS 21.9425 -96.2775 main 108 93 P_____________ AL021921 21.9425 -96.2775 TS 45 0 4 285
1921248N21265 1921 43 NA GM NOT_NAMED 1921-09-06 12:00:00 TS 22.0000 -96.5000 50 hurdat_atl main 93 83 O_____________ hurdat_atl AL021921 22.0000 -96.5000 TS 50 0 5 289
1921248N21265 1921 43 NA GM NOT_NAMED 1921-09-06 15:00:00 TS 22.0925 -96.7350 main 83 68 P_____________ AL021921 22.0925 -96.7350 TS 55 0 5 293
1921248N21265 1921 43 NA GM NOT_NAMED 1921-09-06 18:00:00 TS 22.2000 -97.0000 60 hurdat_atl main 68 51 O_____________ hurdat_atl AL021921 22.2000 -97.0000 TS 60 0 6 292
1921248N21265 1921 43 NA GM NOT_NAMED 1921-09-06 21:00:00 TS 22.3000 -97.3000 main 51 20 P_____________ AL021921 22.3000 -97.3000 TS 65 1 6 290
1921248N21265 1921 43 NA GM NOT_NAMED 1921-09-07 00:00:00 TS 22.4000 -97.6000 70 hurdat_atl main 20 0 O_____________ hurdat_atl AL021921 22.4000 -97.6000 HU 70 1 6 291
1921248N21265 1921 43 NA GM NOT_NAMED 1921-09-07 03:00:00 TS 22.4999 -97.8576 main 0 0 P_____________ AL021921 22.4999 -97.8576 HU 62 0 5 293
1921248N21265 1921 43 NA NA NOT_NAMED 1921-09-07 06:00:00 TS 22.6000 -98.1000 55 hurdat_atl main 0 0 O_____________ hurdat_atl AL021921 22.6000 -98.1000 TS 55 0 5 292
1921248N21265 1921 43 NA NA NOT_NAMED 1921-09-07 09:00:00 TS 22.6850 -98.3651 main 0 0 P_____________ AL021921 22.6850 -98.3651 TS 50 0 5 293
1921248N21265 1921 43 NA NA NOT_NAMED 1921-09-07 12:00:00 TS 22.8000 -98.6000 45 hurdat_atl main 0 0 O_____________ hurdat_atl AL021921 22.8000 -98.6000 TS 45 0 5 306
1921248N21265 1921 43 NA NA NOT_NAMED 1921-09-07 15:00:00 TS 22.9700 -98.7949 main 0 0 P_____________ AL021921 22.9700 -98.7949 TS 42 0 5 325
1921248N21265 1921 43 NA NA NOT_NAMED 1921-09-07 18:00:00 TS 23.2000 -98.9000 40 hurdat_atl main 0 0 O_____________ hurdat_atl AL021921 23.2000 -98.9000 TS 40 0 5 351
1921248N21265 1921 43 NA NA NOT_NAMED 1921-09-07 21:00:00 TS 23.4550 -98.8801 main 0 0 P_____________ AL021921 23.4550 -98.8801 TS 37 0 6 8
1921248N21265 1921 43 NA NA NOT_NAMED 1921-09-08 00:00:00 TS 23.8000 -98.8000 35 hurdat_atl main 0 0 O_____________ hurdat_atl AL021921 23.8000 -98.8000 TS 35 0 8 9
1921248N21265 1921 43 NA NA NOT_NAMED 1921-09-08 03:00:00 TS 24.2650 -98.7400 main 0 0 P_____________ AL021921 24.2650 -98.7400 TS 32 -1 10 5
1921248N21265 1921 43 NA NA NOT_NAMED 1921-09-08 06:00:00 TS 24.8000 -98.7000 30 hurdat_atl main 0 O_____________ hurdat_atl AL021921 24.8000 -98.7000 TD 30 -1 11 5

About IBTrACS Database

This database is a web-friendly format of International Best Track Archive for Climate Stewardship (IBTrACS), a global best track data archive curated by NOAA dating back to 1842.

Updated: 2021-10-21